Time;durP1;ratioP1;P1;durP2;ratioP2;P2;SDS_P1;SDS_P2;PMS_P1;PMS_P2;Temp;Humidity;BMP_temperature;BMP_pressure;BME280_temperature;BME280_humidity;BME280_pressure;Samples;Min_cycle;Max_cycle;Signal;HPM_P1;HPM_P2
2022/09/29 00:02:11;;;;;;;;;;;;;;;;;;5114883;28;1975;-45
2022/09/29 00:04:38;;;;;;;;;;;;;;;;;;5114778;28;2117;-45
2022/09/29 00:07:05;;;;;;;;;;;;;;;;;;5114622;28;1931;-43
2022/09/29 00:09:32;;;;;;;;;;;;;;;;;;5114507;28;1848;-44
2022/09/29 00:11:59;;;;;;;;;;;;;;;;;;5114471;28;2228;-43
2022/09/29 00:14:26;;;;;;;;;;;;;;;;;;5114284;28;1913;-45
2022/09/29 00:16:53;;;;;;;;;;;;;;;;;;5113362;28;1971;-43
2022/09/29 00:19:20;;;;;;;;;;;;;;;;;;5114372;28;2027;-41
2022/09/29 00:21:47;;;;;;;;;;;;;;;;;;5114255;28;1948;-47
2022/09/29 00:24:15;;;;;;;;;;;;;;;;;;5114551;28;1940;-44
2022/09/29 00:26:45;;;;;;;;;;;;;;;;;;5114478;28;1777;-46
2022/09/29 00:29:12;;;;;;;;;;;;;;;;;;5114507;28;2166;-45
2022/09/29 00:31:40;;;;;;;;;;;;;;;;;;5126356;27;1957;-45
2022/09/29 00:34:07;;;;;;;;;;;;;;;;;;5134849;27;1608;-44
2022/09/29 00:36:34;;;;;;;;;;;;;;;;;;5134289;27;2272;-44
2022/09/29 00:39:01;;;;;;;;;;;;;;;;;;5134550;27;1950;-45
2022/09/29 00:41:30;;;;;;;;;;;;;;;;;;5133842;27;1909;-42
2022/09/29 00:44:05;;;;;;;;;;;;;;;;;;5134576;27;1987;-44
2022/09/29 00:46:55;;;;;;;;;;;;;;;;;;5134437;27;1966;-44
2022/09/29 00:49:22;;;;;;;;;;;;;;;;;;5129002;27;1621;-44
2022/09/29 00:52:01;;;;;;;;;;;;;;;;;;5134024;27;1898;-45
2022/09/29 00:54:31;;;;;;;;;;;;;;;;;;5134489;27;2099;-46
2022/09/29 00:57:00;;;;;;;;;;;;;;;;;;5133922;27;1906;-45
2022/09/29 00:59:46;;;;;;;;;;;;;;;;;;5133998;27;1831;-43
2022/09/29 01:02:14;;;;;;;;;;;;;;;;;;5133969;27;1921;-43
2022/09/29 01:04:41;;;;;;;;;;;;;;;;;;5134489;27;1713;-45
2022/09/29 01:07:09;;;;;;;;;;;;;;;;;;5132820;27;1662;-45
2022/09/29 01:09:37;;;;;;;;;;;;;;;;;;5134216;27;1823;-45
2022/09/29 01:12:05;;;;;;;;;;;;;;;;;;5134122;27;2209;-45
2022/09/29 01:14:33;;;;;;;;;;;;;;;;;;5133912;27;1981;-44
2022/09/29 01:17:01;;;;;;;;;;;;;;;;;;5133327;27;2026;-43
2022/09/29 01:19:49;;;;;;;;;;;;;;;;;;5134078;27;2182;-45
2022/09/29 01:22:18;;;;;;;;;;;;;;;;;;5133736;27;2164;-43
2022/09/29 01:24:45;;;;;;;;;;;;;;;;;;5133788;27;2153;-43
2022/09/29 01:27:23;;;;;;;;;;;;;;;;;;5133448;27;1648;-45
2022/09/29 01:30:13;;;;;;;;;;;;;;;;;;5133756;27;1858;-45
2022/09/29 01:32:42;;;;;;;;;;;;;;;;;;5133931;27;1695;-46
2022/09/29 01:35:16;;;;;;;;;;;;;;;;;;5133352;27;2100;-43
2022/09/29 01:37:55;;;;;;;;;;;;;;;;;;5133662;27;1964;-45
2022/09/29 01:40:29;;;;;;;;;;;;;;;;;;5133195;27;1843;-44
2022/09/29 01:43:11;;;;;;;;;;;;;;;;;;5133631;27;1380;-45
2022/09/29 01:45:41;;;;;;;;;;;;;;;;;;5133576;27;1933;-44
2022/09/29 01:48:13;;;;;;;;;;;;;;;;;;5133314;28;2177;-44
2022/09/29 01:50:44;;;;;;;;;;;;;;;;;;5133510;27;2207;-41
2022/09/29 01:53:13;;;;;;;;;;;;;;;;;;5133669;28;1917;-43
2022/09/29 01:55:46;;;;;;;;;;;;;;;;;;5133500;27;1691;-44
2022/09/29 01:58:16;;;;;;;;;;;;;;;;;;5133596;28;2042;-40
2022/09/29 02:00:47;;;;;;;;;;;;;;;;;;5133411;27;1815;-44
2022/09/29 02:03:14;;;;;;;;;;;;;;;;;;5133306;28;1891;-44
2022/09/29 02:05:52;;;;;;;;;;;;;;;;;;5133598;27;1696;-43
2022/09/29 02:08:26;;;;;;;;;;;;;;;;;;5133287;28;2022;-46
2022/09/29 02:10:58;;;;;;;;;;;;;;;;;;5133105;28;1381;-42
2022/09/29 02:13:25;;;;;;;;;;;;;;;;;;5133060;28;1780;-42
2022/09/29 02:15:54;;;;;;;;;;;;;;;;;;5128067;28;1973;-43
2022/09/29 02:18:22;;;;;;;;;;;;;;;;;;5112523;28;2058;-43
2022/09/29 02:20:50;;;;;;;;;;;;;;;;;;5112489;28;2015;-43
2022/09/29 02:23:17;;;;;;;;;;;;;;;;;;5112639;28;1750;-42
2022/09/29 02:25:46;;;;;;;;;;;;;;;;;;5112556;28;1931;-42
2022/09/29 02:28:14;;;;;;;;;;;;;;;;;;5112780;28;1817;-43
2022/09/29 02:30:41;;;;;;;;;;;;;;;;;;5112568;28;2359;-43
2022/09/29 02:33:19;;;;;;;;;;;;;;;;;;5112526;28;1966;-43
2022/09/29 02:36:19;;;;;;;;;;;;;;;;;;5112334;28;1473;-45
2022/09/29 02:39:00;;;;;;;;;;;;;;;;;;5090221;28;1654;-42
2022/09/29 02:41:32;;;;;;;;;;;;;;;;;;5115806;28;2475;-44
2022/09/29 02:43:59;;;;;;;;;;;;;;;;;;5116213;28;1460;-42
2022/09/29 02:46:41;;;;;;;;;;;;;;;;;;5116030;28;2292;-42
2022/09/29 02:49:29;;;;;;;;;;;;;;;;;;5116008;28;1768;-44
2022/09/29 02:51:59;;;;;;;;;;;;;;;;;;5115953;28;1932;-43
2022/09/29 02:54:46;;;;;;;;;;;;;;;;;;5116013;28;1547;-43
2022/09/29 02:57:25;;;;;;;;;;;;;;;;;;5115905;28;2286;-43
2022/09/29 03:00:10;;;;;;;;;;;;;;;;;;5115723;28;1539;-43
2022/09/29 03:02:38;;;;;;;;;;;;;;;;;;5115761;28;1941;-42
2022/09/29 03:05:06;;;;;;;;;;;;;;;;;;5115532;28;1940;-41
2022/09/29 03:07:34;;;;;;;;;;;;;;;;;;5115638;28;1800;-44
2022/09/29 03:10:01;;;;;;;;;;;;;;;;;;5115618;28;2096;-41
2022/09/29 03:12:28;;;;;;;;;;;;;;;;;;5115785;28;2133;-41
2022/09/29 03:14:55;;;;;;;;;;;;;;;;;;5115438;28;1644;-43
2022/09/29 03:17:23;;;;;;;;;;;;;;;;;;5115308;28;2080;-42
2022/09/29 03:19:50;;;;;;;;;;;;;;;;;;5115362;28;1977;-44
2022/09/29 03:22:18;;;;;;;;;;;;;;;;;;5115308;28;1970;-43
2022/09/29 03:24:45;;;;;;;;;;;;;;;;;;5115519;28;2000;-42
2022/09/29 03:27:12;;;;;;;;;;;;;;;;;;5115214;27;1987;-43
2022/09/29 03:29:39;;;;;;;;;;;;;;;;;;5115421;28;2005;-42
2022/09/29 03:32:06;;;;;;;;;;;;;;;;;;5115119;28;1581;-41
2022/09/29 03:34:33;;;;;;;;;;;;;;;;;;5135031;27;1822;-42
2022/09/29 03:37:01;;;;;;;;;;;;;;;;;;5135500;27;1965;-43
2022/09/29 03:39:28;;;;;;;;;;;;;;;;;;5135376;27;1361;-42
2022/09/29 03:41:55;;;;;;;;;;;;;;;;;;5128653;27;2047;-43
2022/09/29 03:44:22;;;;;;;;;;;;;;;;;;5119289;27;1971;-42
2022/09/29 03:46:49;;;;;;;;;;;;;;;;;;5135084;27;1920;-41
2022/09/29 03:49:16;;;;;;;;;;;;;;;;;;5135168;27;1992;-44
2022/09/29 03:51:44;;;;;;;;;;;;;;;;;;5118323;27;1976;-42
2022/09/29 03:54:11;;;;;;;;;;;;;;;;;;5114762;28;1814;-42
2022/09/29 03:56:38;;;;;;;;;;;;;;;;;;5114157;28;2116;-41
2022/09/29 03:59:08;;;;;;;;;;;;;;;;;;5114241;28;1950;-43
2022/09/29 04:01:36;;;;;;;;;;;;;;;;;;5114439;28;1994;-41
2022/09/29 04:04:05;;;;;;;;;;;;;;;;;;5114318;28;2088;-41
2022/09/29 04:06:32;;;;;;;;;;;;;;;;;;5114532;28;2140;-42
2022/09/29 04:09:00;;;;;;;;;;;;;;;;;;5114455;28;1640;-42
2022/09/29 04:11:27;;;;;;;;;;;;;;;;;;5114341;28;1910;-42
2022/09/29 04:13:54;;;;;;;;;;;;;;;;;;5114377;28;2254;-41
2022/09/29 04:16:21;;;;;;;;;;;;;;;;;;5114192;28;1894;-41
2022/09/29 04:18:49;;;;;;;;;;;;;;;;;;5114278;28;2096;-43
2022/09/29 04:21:19;;;;;;;;;;;;;;;;;;5114272;28;1898;-43
2022/09/29 04:23:47;;;;;;;;;;;;;;;;;;5114360;28;2050;-42
2022/09/29 04:26:14;;;;;;;;;;;;;;;;;;5114296;28;2079;-40
2022/09/29 04:28:42;;;;;;;;;;;;;;;;;;5114333;28;1506;-41
2022/09/29 04:31:09;;;;;;;;;;;;;;;;;;5123077;27;1654;-41
2022/09/29 04:33:38;;;;;;;;;;;;;;;;;;5134532;27;2160;-40
2022/09/29 04:36:06;;;;;;;;;;;;;;;;;;5134415;27;2123;-41
2022/09/29 04:38:33;;;;;;;;;;;;;;;;;;5134490;27;2011;-41
2022/09/29 04:41:00;;;;;;;;;;;;;;;;;;5133630;27;1864;-42
2022/09/29 04:43:28;;;;;;;;;;;;;;;;;;5134257;27;1739;-41
2022/09/29 04:46:02;;;;;;;;;;;;;;;;;;5134451;27;1526;-41
2022/09/29 04:48:29;;;;;;;;;;;;;;;;;;5134277;27;1788;-41
2022/09/29 04:51:01;;;;;;;;;;;;;;;;;;5134347;27;2196;-41
2022/09/29 04:53:28;;;;;;;;;;;;;;;;;;5133732;27;2131;-41
2022/09/29 04:55:55;;;;;;;;;;;;;;;;;;5133994;27;1847;-41
2022/09/29 04:58:22;;;;;;;;;;;;;;;;;;5134065;27;1986;-41
2022/09/29 05:00:49;;;;;;;;;;;;;;;;;;5133769;27;2254;-44
2022/09/29 05:03:17;;;;;;;;;;;;;;;;;;5133705;27;2088;-41
2022/09/29 05:05:44;;;;;;;;;;;;;;;;;;5134001;27;1656;-40
2022/09/29 05:08:11;;;;;;;;;;;;;;;;;;5133944;27;1963;-41
2022/09/29 05:10:38;;;;;;;;;;;;;;;;;;5134097;27;1758;-40
2022/09/29 05:13:05;;;;;;;;;;;;;;;;;;5133957;27;1780;-41
2022/09/29 05:15:32;;;;;;;;;;;;;;;;;;5133802;27;1589;-42
2022/09/29 05:18:01;;;;;;;;;;;;;;;;;;5133759;27;1967;-42
2022/09/29 05:20:28;;;;;;;;;;;;;;;;;;5133559;27;1827;-42
2022/09/29 05:23:08;;;;;;;;;;;;;;;;;;5133640;27;1831;-42
2022/09/29 05:25:36;;;;;;;;;;;;;;;;;;5133102;27;1341;-41
2022/09/29 05:28:03;;;;;;;;;;;;;;;;;;5133260;27;2056;-41
2022/09/29 05:30:31;;;;;;;;;;;;;;;;;;5129603;27;1860;-40
2022/09/29 05:32:58;;;;;;;;;;;;;;;;;;5112924;28;1899;-42
2022/09/29 05:35:25;;;;;;;;;;;;;;;;;;5112859;28;1926;-41
2022/09/29 05:37:52;;;;;;;;;;;;;;;;;;5112900;28;1977;-40
2022/09/29 05:40:22;;;;;;;;;;;;;;;;;;5112929;28;2230;-41
2022/09/29 05:42:50;;;;;;;;;;;;;;;;;;5112977;28;1812;-40
2022/09/29 05:45:17;;;;;;;;;;;;;;;;;;5112467;28;1790;-41
2022/09/29 05:47:45;;;;;;;;;;;;;;;;;;5112997;28;1693;-41
2022/09/29 05:50:12;;;;;;;;;;;;;;;;;;5113244;28;2079;-40
2022/09/29 05:52:39;;;;;;;;;;;;;;;;;;5112785;28;2143;-40
2022/09/29 05:55:10;;;;;;;;;;;;;;;;;;5112726;28;1565;-39
2022/09/29 05:57:37;;;;;;;;;;;;;;;;;;5112599;28;1914;-40
2022/09/29 06:00:05;;;;;;;;;;;;;;;;;;5112605;28;1903;-40
2022/09/29 06:02:38;;;;;;;;;;;;;;;;;;5112674;28;1660;-40
2022/09/29 06:05:05;;;;;;;;;;;;;;;;;;5112222;28;1844;-41
2022/09/29 06:07:32;;;;;;;;;;;;;;;;;;5111450;28;1825;-42
2022/09/29 06:09:59;;;;;;;;;;;;;;;;;;5112532;28;1779;-41
2022/09/29 06:12:27;;;;;;;;;;;;;;;;;;5116452;27;2029;-40
2022/09/29 06:14:54;;;;;;;;;;;;;;;;;;5135820;27;1648;-41
2022/09/29 06:17:21;;;;;;;;;;;;;;;;;;5137149;27;1997;-42
2022/09/29 06:19:48;;;;;;;;;;;;;;;;;;5137368;27;1943;-42
2022/09/29 06:22:15;;;;;;;;;;;;;;;;;;5137036;27;2014;-41
2022/09/29 06:24:42;;;;;;;;;;;;;;;;;;5137166;27;2001;-41
2022/09/29 06:27:10;;;;;;;;;;;;;;;;;;5136893;27;1895;-41
2022/09/29 06:29:37;;;;;;;;;;;;;;;;;;5136718;27;1678;-41
2022/09/29 06:32:04;;;;;;;;;;;;;;;;;;5120011;27;1667;-40
2022/09/29 06:34:32;;;;;;;;;;;;;;;;;;5116179;28;1689;-41
2022/09/29 06:39:44;;;;;;;;;;;;;;;;;;5115789;28;1876;-40
2022/09/29 06:42:12;;;;;;;;;;;;;;;;;;5116034;28;1919;-42
2022/09/29 06:44:39;;;;;;;;;;;;;;;;;;5116075;28;1694;-41
2022/09/29 06:47:06;;;;;;;;;;;;;;;;;;5116008;28;1987;-41
2022/09/29 06:49:33;;;;;;;;;;;;;;;;;;5115979;28;1960;-42
2022/09/29 06:52:00;;;;;;;;;;;;;;;;;;5115902;27;1730;-41
2022/09/29 06:54:37;;;;;;;;;;;;;;;;;;5115973;28;1375;-44
2022/09/29 06:57:04;;;;;;;;;;;;;;;;;;5115755;28;2123;-40
2022/09/29 06:59:31;;;;;;;;;;;;;;;;;;5115710;28;1994;-40
2022/09/29 07:01:58;;;;;;;;;;;;;;;;;;5115389;28;1732;-41
2022/09/29 07:04:26;;;;;;;;;;;;;;;;;;5115433;28;2135;-41
2022/09/29 07:06:53;;;;;;;;;;;;;;;;;;5115555;28;1620;-40
2022/09/29 07:09:22;;;;;;;;;;;;;;;;;;5115449;28;1791;-41
2022/09/29 07:11:50;;;;;;;;;;;;;;;;;;5115621;28;2174;-41
2022/09/29 07:14:18;;;;;;;;;;;;;;;;;;5115601;28;1317;-40
2022/09/29 07:16:47;;;;;;;;;;;;;;;;;;5115461;28;1635;-40
2022/09/29 07:19:15;;;;;;;;;;;;;;;;;;5115497;28;1939;-41
2022/09/29 07:21:43;;;;;;;;;;;;;;;;;;5115010;28;1911;-41
2022/09/29 07:24:10;;;;;;;;;;;;;;;;;;5114945;28;2094;-41
2022/09/29 07:26:37;;;;;;;;;;;;;;;;;;5115140;28;1882;-41
2022/09/29 07:29:04;;;;;;;;;;;;;;;;;;5119765;27;2152;-39
2022/09/29 07:31:32;;;;;;;;;;;;;;;;;;5126273;27;1462;-40
2022/09/29 07:34:13;;;;;;;;;;;;;;;;;;5135709;27;1794;-41
2022/09/29 07:36:40;;;;;;;;;;;;;;;;;;5135694;27;1952;-41
2022/09/29 07:39:08;;;;;;;;;;;;;;;;;;5135412;27;1910;-41
2022/09/29 07:41:35;;;;;;;;;;;;;;;;;;5135137;27;1917;-42
2022/09/29 07:44:02;;;;;;;;;;;;;;;;;;5135537;27;1779;-40
2022/09/29 07:46:31;;;;;;;;;;;;;;;;;;5134952;27;2052;-41
2022/09/29 07:48:58;;;;;;;;;;;;;;;;;;5135202;27;1938;-41
2022/09/29 07:51:25;;;;;;;;;;;;;;;;;;5135499;27;2022;-42
2022/09/29 07:53:52;;;;;;;;;;;;;;;;;;5135301;27;1986;-41
2022/09/29 07:56:21;;;;;;;;;;;;;;;;;;5135259;27;1813;-41
2022/09/29 07:58:48;;;;;;;;;;;;;;;;;;5134948;27;2038;-41
2022/09/29 08:01:17;;;;;;;;;;;;;;;;;;5135309;27;1552;-40
2022/09/29 08:03:49;;;;;;;;;;;;;;;;;;5135171;27;1480;-40
2022/09/29 08:06:18;;;;;;;;;;;;;;;;;;5134935;27;2033;-45
2022/09/29 08:08:45;;;;;;;;;;;;;;;;;;5135343;27;1963;-40
2022/09/29 08:11:25;;;;;;;;;;;;;;;;;;5134918;27;1840;-38
2022/09/29 08:13:57;;;;;;;;;;;;;;;;;;5134983;27;1545;-41
2022/09/29 08:16:25;;;;;;;;;;;;;;;;;;5134838;27;2108;-40
2022/09/29 08:18:52;;;;;;;;;;;;;;;;;;5134683;27;1977;-41
2022/09/29 08:21:20;;;;;;;;;;;;;;;;;;5134601;27;1324;-41
2022/09/29 08:23:47;;;;;;;;;;;;;;;;;;5134614;27;1943;-41
2022/09/29 08:26:18;;;;;;;;;;;;;;;;;;5134755;27;1866;-40
2022/09/29 08:28:56;;;;;;;;;;;;;;;;;;5134482;27;1960;-40
2022/09/29 08:31:33;;;;;;;;;;;;;;;;;;5121627;27;1812;-42
2022/09/29 08:34:01;;;;;;;;;;;;;;;;;;5113926;28;1930;-41
2022/09/29 08:36:28;;;;;;;;;;;;;;;;;;5112407;28;1391;-42
2022/09/29 08:38:56;;;;;;;;;;;;;;;;;;5112835;28;2126;-41
2022/09/29 08:41:32;;;;;;;;;;;;;;;;;;5111551;28;1869;-42
2022/09/29 08:44:03;;;;;;;;;;;;;;;;;;5111860;28;1804;-41
2022/09/29 08:46:38;;;;;;;;;;;;;;;;;;5111367;28;1923;-41
2022/09/29 08:49:12;;;;;;;;;;;;;;;;;;5112615;28;1870;-41
2022/09/29 08:51:50;;;;;;;;;;;;;;;;;;5112612;28;2242;-41
2022/09/29 08:54:20;;;;;;;;;;;;;;;;;;5111833;28;1846;-42
2022/09/29 08:57:01;;;;;;;;;;;;;;;;;;5111553;28;1677;-39
2022/09/29 08:59:28;;;;;;;;;;;;;;;;;;5111436;28;2258;-42
2022/09/29 09:02:01;;;;;;;;;;;;;;;;;;5111366;28;1806;-41
2022/09/29 09:04:32;;;;;;;;;;;;;;;;;;5111351;28;1867;-40
2022/09/29 09:07:00;;;;;;;;;;;;;;;;;;5111390;28;2204;-40
2022/09/29 09:09:37;;;;;;;;;;;;;;;;;;5112009;28;1745;-41
2022/09/29 09:12:23;;;;;;;;;;;;;;;;;;5113207;28;1865;-39
2022/09/29 09:14:57;;;;;;;;;;;;;;;;;;5113127;28;1670;-42
2022/09/29 09:17:36;;;;;;;;;;;;;;;;;;5113188;28;1842;-41
2022/09/29 09:20:10;;;;;;;;;;;;;;;;;;5112975;28;1959;-42
2022/09/29 09:22:45;;;;;;;;;;;;;;;;;;5113010;28;1746;-42
2022/09/29 09:25:32;;;;;;;;;;;;;;;;;;5112968;28;1917;-41
2022/09/29 09:28:18;;;;;;;;;;;;;;;;;;5112796;28;2105;-40
2022/09/29 09:30:49;;;;;;;;;;;;;;;;;;5112950;28;2137;-40
2022/09/29 09:33:25;;;;;;;;;;;;;;;;;;5130322;27;1930;-41
2022/09/29 09:36:01;;;;;;;;;;;;;;;;;;5123551;27;1910;-40
2022/09/29 09:38:37;;;;;;;;;;;;;;;;;;5112964;28;1975;-42
2022/09/29 09:41:04;;;;;;;;;;;;;;;;;;5112391;28;1864;-41
2022/09/29 09:43:46;;;;;;;;;;;;;;;;;;5112856;28;1750;-40
2022/09/29 09:46:19;;;;;;;;;;;;;;;;;;5112782;28;1908;-40
2022/09/29 09:49:07;;;;;;;;;;;;;;;;;;5117728;28;2020;-42
2022/09/29 09:51:34;;;;;;;;;;;;;;;;;;5108928;28;1868;-40
2022/09/29 09:54:10;;;;;;;;;;;;;;;;;;5119420;27;1965;-41
2022/09/29 09:56:37;;;;;;;;;;;;;;;;;;5119617;28;1986;-39
2022/09/29 09:59:34;;;;;;;;;;;;;;;;;;5119494;27;1980;-42
2022/09/29 10:02:02;;;;;;;;;;;;;;;;;;5106333;28;1881;-41
2022/09/29 10:04:30;;;;;;;;;;;;;;;;;;5119454;27;1790;-46
2022/09/29 10:06:57;;;;;;;;;;;;;;;;;;5119465;27;1396;-43
2022/09/29 10:09:24;;;;;;;;;;;;;;;;;;5119387;27;1767;-42
2022/09/29 10:11:52;;;;;;;;;;;;;;;;;;5119449;27;1905;-41
2022/09/29 10:14:26;;;;;;;;;;;;;;;;;;5119280;27;1807;-43
2022/09/29 10:16:57;;;;;;;;;;;;;;;;;;5119370;27;1846;-41
2022/09/29 10:19:43;;;;;;;;;;;;;;;;;;5118606;27;1905;-41
2022/09/29 10:22:14;;;;;;;;;;;;;;;;;;5119212;28;1967;-40
2022/09/29 10:24:41;;;;;;;;;;;;;;;;;;5119226;27;1995;-40
2022/09/29 10:27:09;;;;;;;;;;;;;;;;;;5119228;27;1553;-40
2022/09/29 10:29:37;;;;;;;;;;;;;;;;;;5124029;27;2160;-41
2022/09/29 10:32:05;;;;;;;;;;;;;;;;;;5119933;27;1977;-41
2022/09/29 10:34:34;;;;;;;;;;;;;;;;;;5119002;28;1725;-41
2022/09/29 10:37:17;;;;;;;;;;;;;;;;;;5119265;27;1836;-39
2022/09/29 10:39:47;;;;;;;;;;;;;;;;;;5119094;28;1910;-41
2022/09/29 10:42:24;;;;;;;;;;;;;;;;;;5119431;28;1956;-40
2022/09/29 10:44:51;;;;;;;;;;;;;;;;;;5118850;28;2082;-41
2022/09/29 10:47:20;;;;;;;;;;;;;;;;;;5119133;27;2168;-41
2022/09/29 10:50:05;;;;;;;;;;;;;;;;;;5118863;28;1800;-41
2022/09/29 10:52:33;;;;;;;;;;;;;;;;;;5119048;28;1948;-41
2022/09/29 10:55:04;;;;;;;;;;;;;;;;;;5119147;27;1624;-41
2022/09/29 10:57:33;;;;;;;;;;;;;;;;;;5118816;27;1985;-41
2022/09/29 11:00:00;;;;;;;;;;;;;;;;;;5116447;27;1993;-39
2022/09/29 11:02:33;;;;;;;;;;;;;;;;;;5115479;28;1909;-40
2022/09/29 11:05:22;;;;;;;;;;;;;;;;;;5115614;28;1798;-39
2022/09/29 11:07:51;;;;;;;;;;;;;;;;;;5115745;28;2093;-41
2022/09/29 11:10:32;;;;;;;;;;;;;;;;;;5115627;28;1960;-41
2022/09/29 11:13:19;;;;;;;;;;;;;;;;;;5115174;28;1865;-41
2022/09/29 11:15:47;;;;;;;;;;;;;;;;;;5115533;28;1741;-40
2022/09/29 11:18:28;;;;;;;;;;;;;;;;;;5115517;28;2120;-45
2022/09/29 11:21:02;;;;;;;;;;;;;;;;;;5115176;28;2238;-40
2022/09/29 11:23:29;;;;;;;;;;;;;;;;;;5115380;28;2197;-40
2022/09/29 11:26:11;;;;;;;;;;;;;;;;;;5115180;28;2118;-42
2022/09/29 11:28:44;;;;;;;;;;;;;;;;;;5115396;28;1712;-40
2022/09/29 11:31:19;;;;;;;;;;;;;;;;;;5115030;28;1787;-40
2022/09/29 11:33:58;;;;;;;;;;;;;;;;;;5115338;28;1642;-40
2022/09/29 11:36:34;;;;;;;;;;;;;;;;;;5115258;28;2100;-40
2022/09/29 11:39:21;;;;;;;;;;;;;;;;;;5114945;28;2069;-41
2022/09/29 11:42:04;;;;;;;;;;;;;;;;;;5113926;28;1686;-41
2022/09/29 11:44:50;;;;;;;;;;;;;;;;;;5114991;28;1664;-44
2022/09/29 11:47:30;;;;;;;;;;;;;;;;;;5115071;28;2556;-40
2022/09/29 11:50:00;;;;;;;;;;;;;;;;;;5114787;28;1927;-39
2022/09/29 11:52:50;;;;;;;;;;;;;;;;;;5114429;28;1659;-41
2022/09/29 11:55:35;;;;;;;;;;;;;;;;;;5114779;28;1650;-40
2022/09/29 11:58:21;;;;;;;;;;;;;;;;;;5114562;27;1659;-40
2022/09/29 12:01:00;;;;;;;;;;;;;;;;;;5114650;28;1868;-42
2022/09/29 12:03:35;;;;;;;;;;;;;;;;;;5114607;28;2147;-40
2022/09/29 12:06:09;;;;;;;;;;;;;;;;;;5114512;28;2083;-40
2022/09/29 12:08:42;;;;;;;;;;;;;;;;;;5114559;28;1819;-42
2022/09/29 12:11:12;;;;;;;;;;;;;;;;;;5112829;28;1753;-41
2022/09/29 12:14:15;;;;;;;;;;;;;;;;;;5114466;28;2034;-41
2022/09/29 12:16:51;;;;;;;;;;;;;;;;;;5114481;28;1677;-41
2022/09/29 12:19:22;;;;;;;;;;;;;;;;;;5114221;28;2135;-40
2022/09/29 12:21:51;;;;;;;;;;;;;;;;;;5114373;28;1882;-40
2022/09/29 12:24:21;;;;;;;;;;;;;;;;;;5114059;28;2182;-39
2022/09/29 12:26:50;;;;;;;;;;;;;;;;;;5114097;28;1431;-40
2022/09/29 12:29:17;;;;;;;;;;;;;;;;;;5114186;28;1653;-40
2022/09/29 12:31:48;;;;;;;;;;;;;;;;;;5128354;27;1775;-41
2022/09/29 12:34:16;;;;;;;;;;;;;;;;;;5134258;27;1868;-39
2022/09/29 12:36:52;;;;;;;;;;;;;;;;;;5134402;27;1951;-40
2022/09/29 12:39:42;;;;;;;;;;;;;;;;;;5133952;27;1897;-40
2022/09/29 12:42:13;;;;;;;;;;;;;;;;;;5134167;27;1701;-41
2022/09/29 12:44:43;;;;;;;;;;;;;;;;;;5133645;27;1627;-40
2022/09/29 12:47:29;;;;;;;;;;;;;;;;;;5116413;27;2074;-42
2022/09/29 12:50:00;;;;;;;;;;;;;;;;;;5121708;27;1668;-39
2022/09/29 12:52:45;;;;;;;;;;;;;;;;;;5113584;27;2156;-40
2022/09/29 12:55:24;;;;;;;;;;;;;;;;;;5124259;27;1658;-41
2022/09/29 12:57:53;;;;;;;;;;;;;;;;;;5133841;27;2069;-41
2022/09/29 13:00:23;;;;;;;;;;;;;;;;;;5126399;27;1988;-40
2022/09/29 13:03:05;;;;;;;;;;;;;;;;;;5134002;27;2161;-42
2022/09/29 13:05:51;;;;;;;;;;;;;;;;;;5117541;27;1669;-40
2022/09/29 13:08:39;;;;;;;;;;;;;;;;;;5113304;28;1762;-40
2022/09/29 13:11:06;;;;;;;;;;;;;;;;;;5113330;28;1961;-40
2022/09/29 13:13:48;;;;;;;;;;;;;;;;;;5112982;28;2229;-40
2022/09/29 13:16:26;;;;;;;;;;;;;;;;;;5113540;28;1907;-40
2022/09/29 13:19:15;;;;;;;;;;;;;;;;;;5113084;28;1981;-40
2022/09/29 13:22:10;;;;;;;;;;;;;;;;;;5112979;28;2100;-41
2022/09/29 13:24:37;;;;;;;;;;;;;;;;;;5112836;28;1545;-44
2022/09/29 13:27:28;;;;;;;;;;;;;;;;;;5112701;28;2040;-40
2022/09/29 13:30:05;;;;;;;;;;;;;;;;;;5113080;28;2207;-41
2022/09/29 13:32:39;;;;;;;;;;;;;;;;;;5113112;28;1974;-41
2022/09/29 13:35:11;;;;;;;;;;;;;;;;;;5112989;28;1836;-40
2022/09/29 13:37:44;;;;;;;;;;;;;;;;;;5112843;28;2358;-45
2022/09/29 13:40:30;;;;;;;;;;;;;;;;;;5112588;28;2038;-44
2022/09/29 13:42:58;;;;;;;;;;;;;;;;;;5112642;28;1499;-41
2022/09/29 13:45:33;;;;;;;;;;;;;;;;;;5112727;28;1682;-40
2022/09/29 13:48:16;;;;;;;;;;;;;;;;;;5112979;28;1915;-40
2022/09/29 13:50:43;;;;;;;;;;;;;;;;;;5113047;28;1809;-40
2022/09/29 13:53:30;;;;;;;;;;;;;;;;;;5111505;28;1762;-40
2022/09/29 13:56:03;;;;;;;;;;;;;;;;;;5112853;28;1883;-40
2022/09/29 13:58:30;;;;;;;;;;;;;;;;;;5112620;28;1911;-41
2022/09/29 14:01:03;;;;;;;;;;;;;;;;;;5112661;28;1955;-41
2022/09/29 14:03:34;;;;;;;;;;;;;;;;;;5112654;28;2055;-42
2022/09/29 14:06:06;;;;;;;;;;;;;;;;;;5112428;28;1965;-41
2022/09/29 14:09:03;;;;;;;;;;;;;;;;;;5112608;28;1813;-41
2022/09/29 14:11:35;;;;;;;;;;;;;;;;;;5112754;28;1959;-40
2022/09/29 14:14:08;;;;;;;;;;;;;;;;;;5112548;28;1819;-43
2022/09/29 14:16:42;;;;;;;;;;;;;;;;;;5112667;28;1829;-41
2022/09/29 14:19:29;;;;;;;;;;;;;;;;;;5112131;28;1971;-42
2022/09/29 14:21:57;;;;;;;;;;;;;;;;;;5090723;28;1919;-43
2022/09/29 14:24:36;;;;;;;;;;;;;;;;;;5111082;28;2085;-40
2022/09/29 14:27:12;;;;;;;;;;;;;;;;;;5112524;28;1754;-39
2022/09/29 14:29:41;;;;;;;;;;;;;;;;;;5112595;28;1945;-41
2022/09/29 14:32:12;;;;;;;;;;;;;;;;;;5112491;28;1829;-40
2022/09/29 14:34:40;;;;;;;;;;;;;;;;;;5113078;28;2372;-42
2022/09/29 14:37:13;;;;;;;;;;;;;;;;;;5116252;28;1757;-42
2022/09/29 14:39:40;;;;;;;;;;;;;;;;;;5115911;28;1905;-40
2022/09/29 14:42:15;;;;;;;;;;;;;;;;;;5114889;28;2040;-40
2022/09/29 14:53:31;;;;;;;;;;;;;;;;;;5115795;28;1733;-42
2022/09/29 14:56:02;;;;;;;;;;;;;;;;;;5115894;28;1664;-42
2022/09/29 14:58:58;;;;;;;;;;;;;;;;;;5115905;27;1976;-44
2022/09/29 15:01:27;;;;;;;;;;;;;;;;;;5115638;27;1969;-42
2022/09/29 15:03:56;;;;;;;;;;;;;;;;;;5115771;28;1604;-41
2022/09/29 15:06:25;;;;;;;;;;;;;;;;;;5115786;28;1733;-43
2022/09/29 15:09:00;;;;;;;;;;;;;;;;;;5115811;27;1939;-46
2022/09/29 15:11:31;;;;;;;;;;;;;;;;;;5115701;28;2209;-43
2022/09/29 15:13:58;;;;;;;;;;;;;;;;;;5115526;28;1775;-43
2022/09/29 15:16:32;;;;;;;;;;;;;;;;;;5115611;28;1942;-43
2022/09/29 15:19:15;;;;;;;;;;;;;;;;;;5114941;28;1885;-42
2022/09/29 15:21:48;;;;;;;;;;;;;;;;;;5115697;28;2047;-44
2022/09/29 15:24:30;;;;;;;;;;;;;;;;;;5115289;28;2136;-42
2022/09/29 15:27:04;;;;;;;;;;;;;;;;;;5115270;28;1730;-44
2022/09/29 15:29:33;;;;;;;;;;;;;;;;;;5132378;27;1951;-43
2022/09/29 15:32:01;;;;;;;;;;;;;;;;;;5119384;27;1679;-43
2022/09/29 15:34:28;;;;;;;;;;;;;;;;;;5115164;28;1962;-44
2022/09/29 15:36:57;;;;;;;;;;;;;;;;;;5114763;28;1461;-43
2022/09/29 15:39:30;;;;;;;;;;;;;;;;;;5114872;28;1970;-42
2022/09/29 15:42:22;;;;;;;;;;;;;;;;;;5114948;28;1441;-44
2022/09/29 15:44:56;;;;;;;;;;;;;;;;;;5110007;28;2707;-42
2022/09/29 15:47:28;;;;;;;;;;;;;;;;;;5114706;28;1832;-43
2022/09/29 15:49:55;;;;;;;;;;;;;;;;;;5114597;28;1467;-43
2022/09/29 15:52:24;;;;;;;;;;;;;;;;;;5114800;28;1479;-44
2022/09/29 15:54:56;;;;;;;;;;;;;;;;;;5114906;28;2053;-42
2022/09/29 15:57:42;;;;;;;;;;;;;;;;;;5114720;28;1959;-43
2022/09/29 16:00:21;;;;;;;;;;;;;;;;;;5114552;28;2010;-44
2022/09/29 16:03:01;;;;;;;;;;;;;;;;;;5114922;28;2075;-42
2022/09/29 16:05:31;;;;;;;;;;;;;;;;;;5114586;28;1598;-44
2022/09/29 16:08:02;;;;;;;;;;;;;;;;;;5114091;28;1779;-43
2022/09/29 16:10:30;;;;;;;;;;;;;;;;;;5113993;28;1827;-45
2022/09/29 16:13:00;;;;;;;;;;;;;;;;;;5113604;28;1823;-43
2022/09/29 16:15:31;;;;;;;;;;;;;;;;;;5114332;28;1920;-42
2022/09/29 16:18:01;;;;;;;;;;;;;;;;;;5114286;28;1981;-41
2022/09/29 16:20:30;;;;;;;;;;;;;;;;;;5114297;28;1957;-40
2022/09/29 16:23:17;;;;;;;;;;;;;;;;;;5114041;28;2137;-42
2022/09/29 16:25:44;;;;;;;;;;;;;;;;;;5113761;28;1993;-42
2022/09/29 16:28:38;;;;;;;;;;;;;;;;;;5114155;28;1931;-44
2022/09/29 16:31:26;;;;;;;;;;;;;;;;;;5111328;28;1501;-41
2022/09/29 16:33:56;;;;;;;;;;;;;;;;;;5114074;28;1674;-43
2022/09/29 16:36:26;;;;;;;;;;;;;;;;;;5112522;28;1748;-43
2022/09/29 16:38:53;;;;;;;;;;;;;;;;;;5112649;28;2016;-42
2022/09/29 16:41:35;;;;;;;;;;;;;;;;;;5113381;28;1909;-44
2022/09/29 16:44:09;;;;;;;;;;;;;;;;;;5113710;28;2037;-42
2022/09/29 16:46:55;;;;;;;;;;;;;;;;;;5113715;28;2225;-42
2022/09/29 16:49:25;;;;;;;;;;;;;;;;;;5113455;28;1833;-43
2022/09/29 16:51:54;;;;;;;;;;;;;;;;;;5113139;28;1782;-42
2022/09/29 16:54:42;;;;;;;;;;;;;;;;;;5113440;28;1825;-41
2022/09/29 16:57:20;;;;;;;;;;;;;;;;;;5113011;28;1833;-43
2022/09/29 16:59:51;;;;;;;;;;;;;;;;;;5113770;28;1965;-41
2022/09/29 17:02:21;;;;;;;;;;;;;;;;;;5113465;28;1867;-41
2022/09/29 17:04:49;;;;;;;;;;;;;;;;;;5113489;28;1267;-44
2022/09/29 17:07:17;;;;;;;;;;;;;;;;;;5113494;28;2002;-42
2022/09/29 17:10:03;;;;;;;;;;;;;;;;;;5113445;28;1663;-40
2022/09/29 17:12:30;;;;;;;;;;;;;;;;;;5112983;28;1716;-41
2022/09/29 17:14:58;;;;;;;;;;;;;;;;;;5126759;27;1799;-40
2022/09/29 17:17:27;;;;;;;;;;;;;;;;;;5122226;27;1888;-42
2022/09/29 17:19:57;;;;;;;;;;;;;;;;;;5133504;27;2059;-41
2022/09/29 17:22:29;;;;;;;;;;;;;;;;;;5133158;27;2016;-44
2022/09/29 17:24:57;;;;;;;;;;;;;;;;;;5133841;27;2064;-41
2022/09/29 17:30:17;;;;;;;;;;;;;;;;;;5132882;27;1738;-42
2022/09/29 17:32:45;;;;;;;;;;;;;;;;;;5111293;28;1617;-42
2022/09/29 17:35:13;;;;;;;;;;;;;;;;;;5113204;28;1990;-43
2022/09/29 17:37:41;;;;;;;;;;;;;;;;;;5112965;28;1589;-43
2022/09/29 17:40:16;;;;;;;;;;;;;;;;;;5112754;28;2135;-42
2022/09/29 17:42:46;;;;;;;;;;;;;;;;;;5112985;28;1563;-42
2022/09/29 17:45:17;;;;;;;;;;;;;;;;;;5112818;28;2211;-41
2022/09/29 17:47:44;;;;;;;;;;;;;;;;;;5112939;28;1803;-43
2022/09/29 17:50:22;;;;;;;;;;;;;;;;;;5112942;28;2294;-43
2022/09/29 17:52:53;;;;;;;;;;;;;;;;;;5113032;28;2163;-45